Portada
METAR-TAF:

METAR-TAF

Aeroports :

Mildenhall, Anglaterra

latitud: 52-22N, longitud: 000-29E, altitud: 10 m

Observació

L'informe es va fer fa 1 hora i 14 minuts, a les 04:56 UTC
Vent 3 kt del Sud-Oest
Temperatura 11°C
Humitat 100%
Pressió 1019 hPa

METAR: EGUN 160456Z AUTO 23003KT M M M 11/11 A3010 RMK AO2 SLP196 T01050105 RVRNO VISNO RWY11 .

Hora: 07:10 (06:10 UTC)

Pronòstic

L'informe es va fer fa 2 hores i 9 minuts, a les 04:01 UTC
Pronòstic vàlid del 16 a les 04 UTC al 17 a les 10 UTC
Vent 6 kt amb direcció variable
Visibilitat 10 km o més
Núvols disperses a una alçada de 3000 ft

TAF: EGUN 160401Z 1604/1710 VRB06KT 9999 SCT030 QNH2999INS TX24/1614Z TN10/1604Z

Observacions i pronòstics meteorològics de més de 4000 aeroports (METAR i TAF).

Les estacions disponibles són els punts grocs i vermells al mapa.

Posi el ratolí al punt desitjat per veure el nom de l'estació.

Feu clic per veure les observacions i els pronòstics meteorològics.

Per canviar el mapa: feu clic els botons verds amb una creu de color negre per apropar; al botó verd amb un guió per allunyar la imatge; o en les fletxes verdes per a mapes adjacents.


METAR-TAF: